deformed-offering

Nearby METAR Reports

 

KNUQ - Moffett Nas/Mtn, California, USA
Distance from station: N 9mi, 14km
Updated: Mon, 23-Jan-2017 1:56am PST
Mostly Cloudy
Mostly Cloudy
 Wind from S
Wind: S 3 mph , 6 km/h
Temperature: 46°F , 8°C
Dew Point: 43°F , 6°C
Humidity: 87%
Barometer: 29.77 inHg , 1008.1 hPa
Clouds: Mostly Cloudy
Visibility: 10 miles , 16 km
Cloud details: Mostly Cloudy 3400 ft
Mostly Cloudy 4600 ft
2017/01/23 09:56 KNUQ 230956Z 19003KT 10SM BKN034 BKN046 08/06 A2977 RMK AO2 RAE20 SLP082 P0001 T00780056
KSJC - San Jose, California, USA
Distance from station: NE 9mi, 14km
Updated: Mon, 23-Jan-2017 1:53am PST
Mostly Cloudy
Mostly Cloudy
 Wind from E
Wind: E 5 mph , 7 km/h
Temperature: 46°F , 8°C
Wind Chill: 44°F , 7°C
Dew Point: 43°F , 6°C
Humidity: 87%
Barometer: 29.76 inHg , 1007.8 hPa
Clouds: Mostly Cloudy
Visibility: 10 miles , 16 km
Cloud details: Partly Cloudy 3800 ft
Mostly Cloudy 4700 ft
2017/01/23 09:53 KSJC 230953Z AUTO 09004KT 10SM SCT038 BKN047 08/06 A2976 RMK AO2 RAB0857E43 SLP077 P0001 T00780056
 
KRHV - San Jose/Reid, California, USA
Distance from station: ENE 12mi, 19km
Updated: Sun, 22-Jan-2017 9:50pm PST
NOT Current
Mostly Cloudy
Mostly Cloudy
 Wind from SE
Wind: SE 7 mph , 11 km/h
Temperature: 46°F , 8°C
Wind Chill: 42°F , 6°C
Dew Point: 45°F , 7°C
Humidity: 93%
Barometer: 29.74 inHg , 1007.1 hPa
Clouds: Mostly Cloudy
Visibility: 10 miles , 16 km
Cloud details: Few Clouds 2000 ft
Mostly Cloudy 3500 ft
2017/01/23 05:50 KRHV 230550Z 13006KT 10SM FEW020 BKN035 08/07 A2974 RMK LAST
KPAO - Palo Alto, California, USA
Distance from station: NNW 14mi, 23km
Updated: Sun, 22-Jan-2017 8:47pm PST
NOT Current
Overcast
Overcast
 Wind from S
Wind: S 9 mph , 15 km/h
Temperature: 48°F , 9°C
Wind Chill: 44°F , 7°C
Dew Point: 45°F , 7°C
Humidity: 87%
Barometer: 29.70 inHg , 1005.8 hPa
Clouds: Overcast
Visibility: 10 miles , 16 km
Cloud details: Partly Cloudy 6000 ft
Overcast 11000 ft
2017/01/23 04:47 KPAO 230447Z 18008KT 10SM SCT060 OVC110 09/07 A2970 RMK LAST
 
KSQL - San Carlos Airpo, California, USA
Distance from station: NW 21mi, 34km
Updated: Mon, 23-Jan-2017 2:15am PST
Clear
Clear
 Wind from ESE
Wind: ESE 5 mph , 7 km/h
Temperature: 46°F , 8°C
Wind Chill: 44°F , 7°C
Dew Point: 43°F , 6°C
Humidity: 87%
Barometer: 29.76 inHg , 1007.8 hPa
Clouds: Clear
Visibility: 10 miles , 16 km
2017/01/23 10:15 KSQL 231015Z AUTO 11004KT 10SM CLR 08/06 A2976 RMK AO2
KE16 - San Martin, California, USA
Distance from station: ESE 27mi, 43km
Updated: Mon, 23-Jan-2017 2:15am PST
Light rain, Overcast
Light rain, Overcast
 Wind from SW
Wind: SW 3 mph , 6 km/h
Temperature: 45°F , 7°C
Dew Point: 43°F , 6°C
Humidity: 93%
Barometer: 29.78 inHg , 1008.5 hPa
Summary: Light Rain
Clouds: Overcast
Visibility: 4 miles , 6 km
Cloud details: Few Clouds 500 ft
Mostly Cloudy 2400 ft
Overcast 2800 ft
2017/01/23 10:15 KE16 231015Z AUTO 23003KT 4SM -RA FEW005 BKN024 OVC028 07/06 A2978 RMK AO2
 
KWVI - Watsonville, California, USA
Distance from station: SSE 27mi, 44km
Updated: Mon, 23-Jan-2017 1:53am PST
Mostly Cloudy
Mostly Cloudy
 Wind from calm
Wind: Calm
Temperature: 45°F , 7°C
Dew Point: 45°F , 7°C
Humidity: 100%
Barometer: 29.77 inHg , 1008.1 hPa
Clouds: Mostly Cloudy
Visibility: 10 miles , 16 km
Cloud details: Few Clouds 1400 ft
Partly Cloudy 2500 ft
Mostly Cloudy 3300 ft
2017/01/23 09:53 KWVI 230953Z AUTO 00000KT 10SM FEW014 SCT025 BKN033 07/07 A2977 RMK AO2 RAE16B26E38 SLP080 P0002 T00670067
KHWD - Hayward, California, USA
Distance from station: N 28mi, 44km
Updated: Mon, 23-Jan-2017 1:54am PST
Light rain, Overcast
Light rain, Overcast
 Wind from S
Wind: S 9 mph , 15 km/h
Temperature: 48°F , 9°C
Wind Chill: 44°F , 7°C
Dew Point: 41°F , 5°C
Humidity: 76%
Barometer: 29.74 inHg , 1007.1 hPa
Summary: Light Rain
Clouds: Overcast
Visibility: 9 miles , 14 km
Cloud details: Few Clouds 1800 ft
Mostly Cloudy 3300 ft
Overcast 6000 ft
2017/01/23 09:54 KHWD 230954Z AUTO 17008KT 9SM -RA FEW018 BKN033 OVC060 09/05 A2974 RMK AO2 RAB10E24B40 SLP081 P0000 T00890050
 
KSFO - San Francisco, California, USA
Distance from station: NW 30mi, 49km
Updated: Mon, 23-Jan-2017 1:56am PST
Mostly Cloudy
Mostly Cloudy
 Wind from S
Wind: S 6 mph , 9 km/h
Temperature: 48°F , 9°C
Wind Chill: 45°F , 7°C
Dew Point: 43°F , 6°C
Humidity: 82%
Barometer: 29.74 inHg , 1007.1 hPa
Clouds: Mostly Cloudy
Visibility: 10 miles , 16 km
Cloud details: Few Clouds 3200 ft
Partly Cloudy 4800 ft
Mostly Cloudy 20000 ft
2017/01/23 09:56 KSFO 230956Z 17005KT 10SM FEW032 SCT048 BKN200 09/06 A2974 RMK AO2 SLP070 T00890056 $
KHAF - Half Moon Bay, California, USA
Distance from station: WNW 31mi, 50km
Updated: Mon, 23-Jan-2017 2:15am PST
Mostly Cloudy
Mostly Cloudy
 Wind from W
Wind: W 14 mph , 22 km/h, Gust: 23 mph , 37 km/h
Temperature: 50°F , 10°C
Wind Chill: 45°F , 7°C
Dew Point: 41°F , 5°C
Humidity: 71%
Barometer: 29.76 inHg , 1007.8 hPa
Clouds: Mostly Cloudy
Visibility: 8 miles , 13 km
Cloud details: Few Clouds 300 ft
Mostly Cloudy 3000 ft
Mostly Cloudy 3900 ft
2017/01/23 10:15 KHAF 231015Z AUTO 26012G20KT 8SM FEW003 BKN030 BKN039 10/05 A2976 RMK AO2
 
KOAK - Oakland, California, USA
Distance from station: NNW 31mi, 50km
Updated: Mon, 23-Jan-2017 1:53am PST
Overcast
Overcast
 Wind from calm
Wind: Calm
Temperature: 48°F , 9°C
Dew Point: 43°F , 6°C
Humidity: 82%
Barometer: 29.75 inHg , 1007.5 hPa
Clouds: Overcast
Visibility: 10 miles , 16 km
Cloud details: Mostly Cloudy 3000 ft
Mostly Cloudy 3900 ft
Overcast 5000 ft
2017/01/23 09:53 KOAK 230953Z 00000KT 10SM BKN030 BKN039 OVC050 09/06 A2975 RMK AO2 RAB03E52 SLP072 P0001 T00890056 $
KLVK - Livermore, California, USA
Distance from station: NNE 31mi, 51km
Updated: Mon, 23-Jan-2017 1:53am PST
Light rain, Overcast
Light rain, Overcast
 Wind from SW
Wind: SW 9 mph , 15 km/h
Temperature: 45°F , 7°C
Wind Chill: 40°F , 4°C
Dew Point: 39°F , 4°C
Humidity: 81%
Barometer: 29.73 inHg , 1006.8 hPa
Summary: Light Rain
Clouds: Overcast
Visibility: 8 miles , 13 km
Cloud details: Mostly Cloudy 4200 ft
Overcast 5000 ft
2017/01/23 09:53 KLVK 230953Z AUTO 22008KT 8SM -RA BKN042 OVC050 07/04 A2973 RMK AO2 RAB13 SLP068 P0003 T00720044
 
KCVH - Hollister Muni, California, USA
Distance from station: SE 42mi, 68km
Updated: Mon, 23-Jan-2017 2:10am PST
Mostly Cloudy
Mostly Cloudy
 Wind from SSE
Wind: SSE 5 mph , 7 km/h
Temperature: 45°F , 7°C
Wind Chill: 42°F , 6°C
Dew Point: 41°F , 5°C
Humidity: 87%
Barometer: 29.78 inHg , 1008.5 hPa
Clouds: Mostly Cloudy
Visibility: 5 miles , 8 km
Cloud details: Few Clouds 100 ft
Partly Cloudy 2000 ft
Mostly Cloudy 3300 ft
2017/01/23 10:10 KCVH 231010Z AUTO 16004KT 5SM FEW001 SCT020 BKN033 07/05 A2978 RMK AO1 P0001
KSNS - Salinas, California, USA
Distance from station: SSE 48mi, 77km
Updated: Mon, 23-Jan-2017 1:53am PST
Rain, Mostly cloudy
Rain, Mostly cloudy
 Wind from E
Wind: E 7 mph , 11 km/h
Temperature: 45°F , 7°C
Wind Chill: 41°F , 5°C
Dew Point: 43°F , 6°C
Humidity: 93%
Barometer: 29.77 inHg , 1008.1 hPa
Summary: Rain
Clouds: Mostly Cloudy
Visibility: 10 miles , 16 km
Cloud details: Mostly Cloudy 5000 ft
2017/01/23 09:53 KSNS 230953Z AUTO 09006KT 10SM RA BKN050 07/06 A2977 RMK AO2 SLP088 P0000 T00670056 $
 
KMRY - Monterey, California, USA
Distance from station: SSE 49mi, 78km
Updated: Mon, 23-Jan-2017 1:54am PST
Mostly Cloudy
Mostly Cloudy
 Wind from S
Wind: S 5 mph , 7 km/h
Temperature: 48°F , 9°C
Wind Chill: 46°F , 8°C
Dew Point: 43°F , 6°C
Humidity: 82%
Barometer: 29.77 inHg , 1008.1 hPa
Clouds: Mostly Cloudy
Visibility: 10 miles , 16 km
Cloud details: Few Clouds 2900 ft
Partly Cloudy 3700 ft
Mostly Cloudy 4300 ft
2017/01/23 09:54 KMRY 230954Z 19004KT 10SM FEW029 SCT037 BKN043 09/06 A2977 RMK AO2 SLP093 T00890061
KCCR - Concord, California, USA
Distance from station: N 50mi, 81km
Updated: Mon, 23-Jan-2017 1:53am PST
Overcast
Overcast
 Wind from SW
Wind: SW 7 mph , 11 km/h
Temperature: 46°F , 8°C
Wind Chill: 42°F , 6°C
Dew Point: 39°F , 4°C
Humidity: 76%
Barometer: 29.75 inHg , 1007.5 hPa
Clouds: Overcast
Visibility: 10 miles , 16 km
Cloud details: Partly Cloudy 3200 ft
Mostly Cloudy 4400 ft
Overcast 9500 ft
2017/01/23 09:53 KCCR 230953Z AUTO 22006KT 10SM SCT032 BKN044 OVC095 08/04 A2975 RMK AO2 RAE53 SLP059 P0002 T00780039
deformed-offering